Time;durP1;ratioP1;P1;durP2;ratioP2;P2;SDS_P1;SDS_P2;PMS_P1;PMS_P2;Temp;Humidity;BMP_temperature;BMP_pressure;BME280_temperature;BME280_humidity;BME280_pressure;Samples;Min_cycle;Max_cycle;Signal;HPM_P1;HPM_P2
2021/04/15 00:02:11;;;;;;;6.28;2.70;;;;;;;;;;5031289;28;20381;-82
2021/04/15 00:04:37;;;;;;;4.95;2.70;;;;;;;;;;5032506;28;20423;-83
2021/04/15 00:07:03;;;;;;;8.05;3.58;;;;;;;;;;5031932;28;20362;-84
2021/04/15 00:09:29;;;;;;;5.43;3.03;;;;;;;;;;5030396;28;20394;-84
2021/04/15 00:11:55;;;;;;;5.25;3.05;;;;;;;;;;5031839;28;20701;-82
2021/04/15 00:14:22;;;;;;;8.15;3.05;;;;;;;;;;5031938;28;20404;-85
2021/04/15 00:16:48;;;;;;;5.47;2.95;;;;;;;;;;5030456;28;20444;-84
2021/04/15 00:19:18;;;;;;;6.60;3.65;;;;;;;;;;5031855;28;20785;-81
2021/04/15 00:21:44;;;;;;;5.75;3.13;;;;;;;;;;5031695;28;20453;-84
2021/04/15 00:24:10;;;;;;;6.45;3.30;;;;;;;;;;5039674;28;20370;-82
2021/04/15 00:26:36;;;;;;;7.30;3.30;;;;;;;;;;5026522;28;20436;-82
2021/04/15 00:29:02;;;;;;;9.07;4.03;;;;;;;;;;5019048;28;20422;-84
2021/04/15 00:31:29;;;;;;;5.68;3.70;;;;;;;;;;5012287;28;20893;-85
2021/04/15 00:33:55;;;;;;;6.32;3.95;;;;;;;;;;5011902;28;20474;-83
2021/04/15 00:36:21;;;;;;;6.72;4.10;;;;;;;;;;5010612;28;20884;-81
2021/04/15 00:38:47;;;;;;;7.25;4.45;;;;;;;;;;5010413;28;20384;-85
2021/04/15 00:41:14;;;;;;;7.95;3.95;;;;;;;;;;5011734;28;20414;-84
2021/04/15 00:43:42;;;;;;;7.07;4.20;;;;;;;;;;5011374;28;20378;-82
2021/04/15 00:46:27;;;;;;;7.85;4.40;;;;;;;;;;5010703;28;20370;-86
2021/04/15 00:48:54;;;;;;;8.52;4.22;;;;;;;;;;5011688;28;20378;-85
2021/04/15 00:51:26;;;;;;;7.10;4.17;;;;;;;;;;5010509;28;20510;-86
2021/04/15 00:53:54;;;;;;;6.63;3.75;;;;;;;;;;5010647;28;20865;-84
2021/04/15 00:56:20;;;;;;;7.33;4.07;;;;;;;;;;5011544;28;20399;-85
2021/04/15 00:58:46;;;;;;;6.40;3.80;;;;;;;;;;5010210;28;20972;-85
2021/04/15 01:01:13;;;;;;;7.28;3.80;;;;;;;;;;5011735;28;20462;-85
2021/04/15 01:03:39;;;;;;;6.67;3.90;;;;;;;;;;5010353;28;20370;-86
2021/04/15 01:06:06;;;;;;;6.35;3.58;;;;;;;;;;5010238;28;20379;-85
2021/04/15 01:08:32;;;;;;;8.38;4.63;;;;;;;;;;5011538;28;20419;-84
2021/04/15 01:11:08;;;;;;;6.22;3.53;;;;;;;;;;5010124;28;20375;-85
2021/04/15 01:13:53;;;;;;;5.57;3.83;;;;;;;;;;5010950;28;21022;-85
2021/04/15 01:16:19;;;;;;;5.68;3.60;;;;;;;;;;5009598;28;20399;-87
2021/04/15 01:18:49;;;;;;;6.10;3.67;;;;;;;;;;5018652;28;20398;-83
2021/04/15 01:21:33;;;;;;;5.10;3.55;;;;;;;;;;5010438;28;20379;-83
2021/04/15 01:24:05;;;;;;;5.35;3.78;;;;;;;;;;5010493;28;20394;-84
2021/04/15 01:26:45;;;;;;;4.88;3.42;;;;;;;;;;5009841;28;20445;-82
2021/04/15 01:29:14;;;;;;;5.53;3.25;;;;;;;;;;5010962;28;20378;-83
2021/04/15 01:31:46;;;;;;;5.72;4.07;;;;;;;;;;5011341;28;20861;-81
2021/04/15 01:34:17;;;;;;;5.50;3.92;;;;;;;;;;5011305;28;20387;-80
2021/04/15 01:36:46;;;;;;;6.07;3.60;;;;;;;;;;5010757;28;20395;-84
2021/04/15 01:39:16;;;;;;;5.40;3.73;;;;;;;;;;5011391;28;20763;-81
2021/04/15 01:41:51;;;;;;;5.82;4.10;;;;;;;;;;5011122;28;20382;-82
2021/04/15 01:44:21;;;;;;;6.40;3.90;;;;;;;;;;5011147;28;20443;-84
2021/04/15 01:46:47;;;;;;;5.75;3.60;;;;;;;;;;5011191;28;20374;-81
2021/04/15 01:49:13;;;;;;;4.28;3.30;;;;;;;;;;5009602;28;20733;-83
2021/04/15 01:51:44;;;;;;;7.32;3.85;;;;;;;;;;5009539;28;20414;-81
2021/04/15 01:54:20;;;;;;;5.38;3.80;;;;;;;;;;5010852;28;20817;-84
2021/04/15 01:56:59;;;;;;;4.63;3.40;;;;;;;;;;5009548;28;20901;-84
2021/04/15 01:59:25;;;;;;;4.85;2.97;;;;;;;;;;5009582;28;20363;-85
2021/04/15 02:01:53;;;;;;;4.43;3.30;;;;;;;;;;5010038;28;20379;-83
2021/04/15 02:04:21;;;;;;;4.90;3.10;;;;;;;;;;5011182;28;20371;-83
2021/04/15 02:06:50;;;;;;;4.57;3.35;;;;;;;;;;5010246;28;20375;-85
2021/04/15 02:09:17;;;;;;;5.18;3.17;;;;;;;;;;5011239;28;20714;-82
2021/04/15 02:11:53;;;;;;;3.58;2.95;;;;;;;;;;5011783;28;20876;-85
2021/04/15 02:14:22;;;;;;;5.93;3.60;;;;;;;;;;5010121;28;20380;-85
2021/04/15 02:16:50;;;;;;;5.30;3.45;;;;;;;;;;5012776;28;20397;-83
2021/04/15 02:19:37;;;;;;;4.38;3.00;;;;;;;;;;5013345;28;20730;-83
2021/04/15 02:22:03;;;;;;;5.60;3.25;;;;;;;;;;5011512;28;20433;-87
2021/04/15 02:24:38;;;;;;;4.30;2.90;;;;;;;;;;5010994;28;20387;-85
2021/04/15 02:27:14;;;;;;;4.13;2.70;;;;;;;;;;5011339;28;20722;-86
2021/04/15 02:29:41;;;;;;;4.60;3.10;;;;;;;;;;5011069;28;20403;-83
2021/04/15 02:32:19;;;;;;;4.65;3.00;;;;;;;;;;5009725;28;20403;-83
2021/04/15 02:34:49;;;;;;;4.95;3.40;;;;;;;;;;5009695;28;20379;-83
2021/04/15 02:37:20;;;;;;;4.47;3.00;;;;;;;;;;5009596;28;20869;-84
2021/04/15 02:39:48;;;;;;;4.93;3.20;;;;;;;;;;5011142;28;20370;-82
2021/04/15 02:42:17;;;;;;;4.22;3.00;;;;;;;;;;5010997;28;20873;-85
2021/04/15 02:44:48;;;;;;;4.63;3.40;;;;;;;;;;5009787;28;20402;-85
2021/04/15 02:47:22;;;;;;;4.50;3.20;;;;;;;;;;5010882;28;20450;-83
2021/04/15 02:49:50;;;;;;;4.65;3.30;;;;;;;;;;5012380;28;20375;-83
2021/04/15 02:52:22;;;;;;;4.93;3.30;;;;;;;;;;5012553;28;20798;-83
2021/04/15 02:54:54;;;;;;;6.30;3.10;;;;;;;;;;5012503;28;20379;-82
2021/04/15 02:57:24;;;;;;;4.10;3.38;;;;;;;;;;5013802;28;20393;-82
2021/04/15 03:00:00;;;;;;;5.90;3.70;;;;;;;;;;5013869;28;20371;-83
2021/04/15 03:02:28;;;;;;;6.60;3.60;;;;;;;;;;5013855;28;20359;-81
2021/04/15 03:04:56;;;;;;;5.68;3.40;;;;;;;;;;5012368;28;20371;-86
2021/04/15 03:07:24;;;;;;;5.30;3.10;;;;;;;;;;5013664;28;20454;-81
2021/04/15 03:09:50;;;;;;;5.50;3.13;;;;;;;;;;5013789;28;20383;-85
2021/04/15 03:12:36;;;;;;;5.68;3.58;;;;;;;;;;5013934;28;20367;-86
2021/04/15 03:15:10;;;;;;;4.47;3.30;;;;;;;;;;5014393;28;20395;-84
2021/04/15 03:17:39;;;;;;;8.10;3.95;;;;;;;;;;5014464;28;20371;-84
2021/04/15 03:20:09;;;;;;;5.30;3.40;;;;;;;;;;5013017;28;20360;-86
2021/04/15 03:22:35;;;;;;;7.10;3.30;;;;;;;;;;5014435;28;20381;-83
2021/04/15 03:25:02;;;;;;;6.40;3.28;;;;;;;;;;5013084;28;20379;-84
2021/04/15 03:27:28;;;;;;;5.35;3.10;;;;;;;;;;5014437;28;20869;-85
2021/04/15 03:29:58;;;;;;;4.75;3.13;;;;;;;;;;5013412;28;20387;-87
2021/04/15 03:32:31;;;;;;;5.90;3.33;;;;;;;;;;5014506;28;20834;-81
2021/04/15 03:35:17;;;;;;;4.82;3.35;;;;;;;;;;5014350;28;20371;-85
2021/04/15 03:37:43;;;;;;;5.50;3.22;;;;;;;;;;5013251;28;20379;-85
2021/04/15 03:40:10;;;;;;;5.30;3.13;;;;;;;;;;5012647;28;20861;-81
2021/04/15 03:42:39;;;;;;;4.83;3.23;;;;;;;;;;5023582;28;20435;-86
2021/04/15 03:45:25;;;;;;;7.45;3.60;;;;;;;;;;5015208;28;20375;-84
2021/04/15 03:47:55;;;;;;;10.98;3.65;;;;;;;;;;5012961;28;20385;-82
2021/04/15 03:50:23;;;;;;;5.80;3.58;;;;;;;;;;5012876;28;20379;-85
2021/04/15 03:52:56;;;;;;;6.75;3.40;;;;;;;;;;5011752;28;20458;-85
2021/04/15 03:55:25;;;;;;;6.43;3.63;;;;;;;;;;5013052;28;20402;-83
2021/04/15 03:57:53;;;;;;;6.63;3.65;;;;;;;;;;5012963;28;20858;-86
2021/04/15 04:00:26;;;;;;;6.30;3.78;;;;;;;;;;5012699;28;20371;-84
2021/04/15 04:02:57;;;;;;;7.80;3.70;;;;;;;;;;5012346;28;20372;-80
2021/04/15 04:05:24;;;;;;;6.57;4.10;;;;;;;;;;5012584;28;20581;-81
2021/04/15 04:07:57;;;;;;;5.45;3.50;;;;;;;;;;5014367;28;20928;-82
2021/04/15 04:10:26;;;;;;;9.10;3.90;;;;;;;;;;5012634;28;20441;-83
2021/04/15 04:13:08;;;;;;;5.18;3.63;;;;;;;;;;5014126;28;20383;-84
2021/04/15 04:15:36;;;;;;;6.72;3.90;;;;;;;;;;5013960;28;20483;-84
2021/04/15 04:18:02;;;;;;;6.35;3.95;;;;;;;;;;5012615;28;20887;-83
2021/04/15 04:20:29;;;;;;;6.85;3.70;;;;;;;;;;5013520;28;20406;-86
2021/04/15 04:23:11;;;;;;;5.45;3.60;;;;;;;;;;5012431;28;20371;-84
2021/04/15 04:25:42;;;;;;;5.60;3.70;;;;;;;;;;5013399;28;20741;-81
2021/04/15 04:28:08;;;;;;;5.15;3.47;;;;;;;;;;5013389;28;20441;-85
2021/04/15 04:30:38;;;;;;;4.65;3.33;;;;;;;;;;5013739;28;20903;-81
2021/04/15 04:33:05;;;;;;;7.67;4.13;;;;;;;;;;5013168;28;20363;-85
2021/04/15 04:35:34;;;;;;;5.67;3.77;;;;;;;;;;5013916;28;20387;-85
2021/04/15 04:38:03;;;;;;;5.07;3.60;;;;;;;;;;5013443;28;20379;-82
2021/04/15 04:40:40;;;;;;;6.15;3.95;;;;;;;;;;5012009;28;20402;-83
2021/04/15 04:43:18;;;;;;;6.72;4.10;;;;;;;;;;5013059;28;20367;-85
2021/04/15 04:45:44;;;;;;;6.97;3.83;;;;;;;;;;5011905;28;20730;-85
2021/04/15 04:48:16;;;;;;;6.10;3.50;;;;;;;;;;5012251;28;20401;-84
2021/04/15 04:51:00;;;;;;;6.35;3.80;;;;;;;;;;5019751;28;20470;-81
2021/04/15 04:53:28;;;;;;;6.67;4.13;;;;;;;;;;5014136;28;20532;-82
2021/04/15 04:55:57;;;;;;;8.25;4.07;;;;;;;;;;5013053;28;20407;-84
2021/04/15 04:58:24;;;;;;;6.55;3.72;;;;;;;;;;5014193;28;20359;-83
2021/04/15 05:00:55;;;;;;;8.55;4.15;;;;;;;;;;5013170;28;20765;-82
2021/04/15 05:03:23;;;;;;;7.82;3.92;;;;;;;;;;5018994;28;20374;-82
2021/04/15 05:05:49;;;;;;;8.98;4.28;;;;;;;;;;5013531;28;20390;-82
2021/04/15 05:08:24;;;;;;;7.40;4.03;;;;;;;;;;5015189;28;20412;-82
2021/04/15 05:10:51;;;;;;;5.65;3.78;;;;;;;;;;5010504;28;20453;-85
2021/04/15 05:13:19;;;;;;;8.80;4.00;;;;;;;;;;5011301;28;20857;-85
2021/04/15 05:15:45;;;;;;;7.55;4.00;;;;;;;;;;5012172;28;20399;-86
2021/04/15 05:18:13;;;;;;;6.15;3.53;;;;;;;;;;5012711;28;20773;-83
2021/04/15 05:20:39;;;;;;;6.88;4.20;;;;;;;;;;5012690;28;20355;-82
2021/04/15 05:23:21;;;;;;;10.20;4.43;;;;;;;;;;5011450;28;20414;-84
2021/04/15 05:25:58;;;;;;;6.13;4.00;;;;;;;;;;5012862;28;20382;-85
2021/04/15 05:28:24;;;;;;;8.07;4.30;;;;;;;;;;5011542;28;20407;-86
2021/04/15 05:30:52;;;;;;;7.68;4.40;;;;;;;;;;5013232;28;20858;-85
2021/04/15 05:33:22;;;;;;;7.43;3.88;;;;;;;;;;5012408;28;20892;-85
2021/04/15 05:36:00;;;;;;;8.23;4.13;;;;;;;;;;5012089;28;20830;-85
2021/04/15 05:38:28;;;;;;;9.65;4.55;;;;;;;;;;5013285;28;20371;-87
2021/04/15 05:40:56;;;;;;;7.50;4.15;;;;;;;;;;5013037;28;20928;-84
2021/04/15 05:43:27;;;;;;;6.35;4.30;;;;;;;;;;5012911;28;20379;-85
2021/04/15 05:45:59;;;;;;;7.40;4.53;;;;;;;;;;5011804;28;20383;-82
2021/04/15 05:48:27;;;;;;;9.55;5.55;;;;;;;;;;5013641;28;20359;-85
2021/04/15 05:50:54;;;;;;;11.27;5.95;;;;;;;;;;5012787;28;20372;-84
2021/04/15 05:53:26;;;;;;;12.40;5.60;;;;;;;;;;5011200;28;20375;-84
2021/04/15 05:56:12;;;;;;;9.33;4.90;;;;;;;;;;5011588;28;20399;-83
2021/04/15 05:58:41;;;;;;;8.93;5.00;;;;;;;;;;5012694;28;20810;-85
2021/04/15 06:01:10;;;;;;;8.85;5.03;;;;;;;;;;5012773;28;20367;-83
2021/04/15 06:03:45;;;;;;;9.50;4.80;;;;;;;;;;5011035;28;20896;-82
2021/04/15 06:06:12;;;;;;;8.60;5.33;;;;;;;;;;5014890;28;20372;-85
2021/04/15 06:08:40;;;;;;;7.93;5.00;;;;;;;;;;5015716;28;20393;-82
2021/04/15 06:11:36;;;;;;;11.40;5.35;;;;;;;;;;5031861;28;20409;-80
2021/04/15 06:14:14;;;;;;;7.68;4.60;;;;;;;;;;5028443;28;20399;-84
2021/04/15 06:16:44;;;;;;;11.13;5.03;;;;;;;;;;5031551;28;20394;-81
2021/04/15 06:19:14;;;;;;;10.63;5.60;;;;;;;;;;5031281;28;20887;-79
2021/04/15 06:21:43;;;;;;;8.50;4.93;;;;;;;;;;5015330;28;20433;-83
2021/04/15 06:24:14;;;;;;;11.20;5.07;;;;;;;;;;5021131;28;20956;-83
2021/04/15 06:26:54;;;;;;;7.93;4.90;;;;;;;;;;5015678;28;20900;-87
2021/04/15 06:29:27;;;;;;;8.30;5.00;;;;;;;;;;5033868;28;20389;-83
2021/04/15 06:31:57;;;;;;;9.13;4.90;;;;;;;;;;5034837;28;20456;-83
2021/04/15 06:34:23;;;;;;;8.73;5.40;;;;;;;;;;5035284;28;20929;-85
2021/04/15 06:37:04;;;;;;;8.13;5.35;;;;;;;;;;5033249;28;20397;-89
2021/04/15 06:39:42;;;;;;;7.88;4.70;;;;;;;;;;5035377;28;20430;-82
2021/04/15 06:42:27;;;;;;;7.07;4.90;;;;;;;;;;5015589;28;20387;-83
2021/04/15 06:45:11;;;;;;;9.30;4.68;;;;;;;;;;5017510;28;20464;-84
2021/04/15 06:47:41;;;;;;;8.23;5.07;;;;;;;;;;5015263;28;20375;-79
2021/04/15 06:50:13;;;;;;;8.20;4.80;;;;;;;;;;5014300;28;20383;-83
2021/04/15 06:52:48;;;;;;;7.38;4.35;;;;;;;;;;5020404;28;20836;-81
2021/04/15 06:55:14;;;;;;;9.35;4.82;;;;;;;;;;5035971;28;20396;-85
2021/04/15 06:57:51;;;;;;;8.15;4.93;;;;;;;;;;5036663;28;20366;-88
2021/04/15 07:00:37;;;;;;;7.67;4.30;;;;;;;;;;5035750;28;20365;-82
2021/04/15 07:03:06;;;;;;;7.50;4.10;;;;;;;;;;5033737;28;20384;-90
2021/04/15 07:05:36;;;;;;;6.78;3.97;;;;;;;;;;5034025;28;20389;-88
2021/04/15 07:08:08;;;;;;;5.22;3.42;;;;;;;;;;5035707;28;20365;-80
2021/04/15 07:11:10;;;;;;;6.63;3.22;;;;;;;;;;5035291;28;20396;-80
2021/04/15 07:13:36;;;;;;;5.15;3.70;;;;;;;;;;4993918;28;20385;-85
2021/04/15 07:16:26;;;;;;;6.28;3.50;;;;;;;;;;5026232;28;20394;-81
2021/04/15 07:19:04;;;;;;;7.28;3.25;;;;;;;;;;5034724;28;20386;-81
2021/04/15 07:21:55;;;;;;;6.50;3.30;;;;;;;;;;5034114;28;20423;-83
2021/04/15 07:24:30;;;;;;;5.20;3.00;;;;;;;;;;5034752;28;20473;-82
2021/04/15 07:27:14;;;;;;;4.30;3.15;;;;;;;;;;5035330;28;20398;-89
2021/04/15 07:29:59;;;;;;;6.45;3.40;;;;;;;;;;5035631;28;20736;-84
2021/04/15 07:32:26;;;;;;;4.65;2.90;;;;;;;;;;5033065;28;20373;-85
2021/04/15 07:34:59;;;;;;;5.22;3.15;;;;;;;;;;5032663;28;20385;-82
2021/04/15 07:37:40;;;;;;;4.88;3.10;;;;;;;;;;5034216;28;20380;-79
2021/04/15 07:40:15;;;;;;;4.82;2.90;;;;;;;;;;5034475;28;20377;-85
2021/04/15 07:43:01;;;;;;;5.90;2.70;;;;;;;;;;5035522;28;20370;-84
2021/04/15 07:45:26;;;;;;;5.32;2.83;;;;;;;;;;5035038;28;20380;-80
2021/04/15 07:48:04;;;;;;;5.53;2.70;;;;;;;;;;5033364;28;20385;-85
2021/04/15 07:50:30;;;;;;;3.83;2.63;;;;;;;;;;5034622;28;20373;-82
2021/04/15 07:53:05;;;;;;;3.83;2.40;;;;;;;;;;5034279;28;20442;-83
2021/04/15 07:55:31;;;;;;;3.88;2.28;;;;;;;;;;5032329;28;20396;-82
2021/04/15 07:58:11;;;;;;;4.03;2.10;;;;;;;;;;5014283;28;20406;-80
2021/04/15 08:01:00;;;;;;;3.53;2.20;;;;;;;;;;5031736;28;20402;-79
2021/04/15 08:03:26;;;;;;;3.15;2.10;;;;;;;;;;5032894;28;20836;-86
2021/04/15 08:06:11;;;;;;;4.47;2.08;;;;;;;;;;5024452;28;20417;-88
2021/04/15 08:08:56;;;;;;;3.80;1.80;;;;;;;;;;5013729;28;20409;-87
2021/04/15 08:11:38;;;;;;;2.78;1.60;;;;;;;;;;5023532;28;20375;-83
2021/04/15 08:14:14;;;;;;;3.05;1.23;;;;;;;;;;5034518;28;20369;-86
2021/04/15 08:16:51;;;;;;;2.40;1.30;;;;;;;;;;5033685;28;20539;-86
2021/04/15 08:19:32;;;;;;;2.20;1.30;;;;;;;;;;5032441;28;20457;-84
2021/04/15 08:21:58;;;;;;;2.43;1.20;;;;;;;;;;5015246;28;20435;-83
2021/04/15 08:24:32;;;;;;;1.50;1.10;;;;;;;;;;5013321;28;20466;-81
2021/04/15 08:27:04;;;;;;;1.55;1.10;;;;;;;;;;5014780;28;20403;-87
2021/04/15 08:29:39;;;;;;;2.90;0.93;;;;;;;;;;5021697;28;20401;-84
2021/04/15 08:32:24;;;;;;;2.08;0.90;;;;;;;;;;5013324;28;20494;-85
2021/04/15 08:34:53;;;;;;;2.40;1.27;;;;;;;;;;5023750;28;20454;-86
2021/04/15 08:37:30;;;;;;;1.80;1.02;;;;;;;;;;5033148;28;20475;-85
2021/04/15 08:40:02;;;;;;;16.33;2.13;;;;;;;;;;5020954;28;20450;-86
2021/04/15 08:42:39;;;;;;;2.30;1.10;;;;;;;;;;5014327;28;20406;-83
2021/04/15 08:45:26;;;;;;;1.80;0.97;;;;;;;;;;5013651;28;20463;-85
2021/04/15 08:48:01;;;;;;;1.85;1.10;;;;;;;;;;5014253;28;20378;-84
2021/04/15 08:50:54;;;;;;;0.97;0.80;;;;;;;;;;5021623;28;20386;-85
2021/04/15 08:53:36;;;;;;;6.95;1.30;;;;;;;;;;5011467;28;20364;-82
2021/04/15 08:56:12;;;;;;;1.77;1.10;;;;;;;;;;5024010;28;20404;-85
2021/04/15 08:58:43;;;;;;;16.85;2.20;;;;;;;;;;5033407;28;20366;-83
2021/04/15 09:01:29;;;;;;;2.00;1.20;;;;;;;;;;5033355;28;20438;-88
2021/04/15 09:04:03;;;;;;;1.98;1.00;;;;;;;;;;5034111;28;20448;-81
2021/04/15 09:06:48;;;;;;;2.35;1.00;;;;;;;;;;5031614;28;20374;-81
2021/04/15 09:09:20;;;;;;;2.97;1.10;;;;;;;;;;5011140;28;20387;-84
2021/04/15 09:11:59;;;;;;;1.63;0.90;;;;;;;;;;5013844;28;20441;-85
2021/04/15 09:14:39;;;;;;;2.00;0.95;;;;;;;;;;5012491;28;20368;-87
2021/04/15 09:17:08;;;;;;;1.90;1.00;;;;;;;;;;5010262;28;20478;-81
2021/04/15 09:19:53;;;;;;;1.67;0.80;;;;;;;;;;5011406;28;20854;-83
2021/04/15 09:22:31;;;;;;;1.92;0.88;;;;;;;;;;5010302;28;20712;-86
2021/04/15 09:25:01;;;;;;;0.63;0.63;;;;;;;;;;5011566;28;20367;-80
2021/04/15 09:27:45;;;;;;;2.60;0.80;;;;;;;;;;5010228;28;20371;-86
2021/04/15 09:30:11;;;;;;;2.10;0.80;;;;;;;;;;5010372;28;20418;-82
2021/04/15 09:32:44;;;;;;;1.02;0.60;;;;;;;;;;5011825;28;20407;-82
2021/04/15 09:35:11;;;;;;;32.42;2.85;;;;;;;;;;5014737;28;20400;-84
2021/04/15 09:37:47;;;;;;;4.32;2.00;;;;;;;;;;5030209;28;20792;-86
2021/04/15 09:40:23;;;;;;;2.40;0.90;;;;;;;;;;5029448;28;20434;-84
2021/04/15 09:43:04;;;;;;;1.73;0.90;;;;;;;;;;5030101;28;20460;-83
2021/04/15 09:46:00;;;;;;;3.25;0.90;;;;;;;;;;5028361;28;20382;-85
2021/04/15 09:48:26;;;;;;;1.40;0.80;;;;;;;;;;5026324;28;20395;-85
2021/04/15 09:50:54;;;;;;;1.50;1.00;;;;;;;;;;5024043;28;20393;-92
2021/04/15 09:53:38;;;;;;;5.55;1.05;;;;;;;;;;5028635;28;20466;-87
2021/04/15 09:56:10;;;;;;;3.07;0.87;;;;;;;;;;5020389;28;20401;-89
2021/04/15 09:58:44;;;;;;;1.25;0.73;;;;;;;;;;5016632;28;20422;-86
2021/04/15 10:01:23;;;;;;;4.10;1.10;;;;;;;;;;5036398;28;20405;-85
2021/04/15 10:04:04;;;;;;;1.23;0.93;;;;;;;;;;5025530;28;20385;-85
2021/04/15 10:06:33;;;;;;;2.97;0.90;;;;;;;;;;5037075;28;20380;-86
2021/04/15 10:09:05;;;;;;;11.77;2.00;;;;;;;;;;5039961;28;20751;-92
2021/04/15 10:11:51;;;;;;;2.60;1.10;;;;;;;;;;5041005;28;20369;-86
2021/04/15 10:14:32;;;;;;;0.70;0.70;;;;;;;;;;5037525;28;20758;-81
2021/04/15 10:17:05;;;;;;;4.43;1.02;;;;;;;;;;5039685;28;20401;-90
2021/04/15 10:19:33;;;;;;;2.33;0.80;;;;;;;;;;5026319;28;20383;-83
2021/04/15 10:22:08;;;;;;;1.85;0.80;;;;;;;;;;5018968;28;20860;-88
2021/04/15 10:24:34;;;;;;;1.20;0.82;;;;;;;;;;5028069;28;20387;-91
2021/04/15 10:27:09;;;;;;;1.33;0.68;;;;;;;;;;5038830;28;20377;-88
2021/04/15 10:29:41;;;;;;;1.17;0.80;;;;;;;;;;5030157;28;20881;-85
2021/04/15 10:32:11;;;;;;;0.93;0.70;;;;;;;;;;5032752;28;20429;-84
2021/04/15 10:34:37;;;;;;;2.00;0.80;;;;;;;;;;5036087;28;20378;-84
2021/04/15 10:37:03;;;;;;;1.70;0.70;;;;;;;;;;5036429;28;20401;-90
2021/04/15 10:39:49;;;;;;;2.80;0.70;;;;;;;;;;5023205;28;20367;-80
2021/04/15 10:42:34;;;;;;;2.80;0.70;;;;;;;;;;5014195;28;20384;-92
2021/04/15 10:45:20;;;;;;;1.63;0.70;;;;;;;;;;5015438;28;20398;-83
2021/04/15 10:48:05;;;;;;;0.90;0.70;;;;;;;;;;5014931;28;20478;-82
2021/04/15 10:50:35;;;;;;;4.57;1.38;;;;;;;;;;5015722;28;21021;-80
2021/04/15 10:53:08;;;;;;;26.02;2.38;;;;;;;;;;5014485;28;20384;-85
2021/04/15 10:55:33;;;;;;;1.55;0.90;;;;;;;;;;5014245;28;20757;-82
2021/04/15 10:58:18;;;;;;;0.95;0.60;;;;;;;;;;5013497;28;20383;-79
2021/04/15 11:00:44;;;;;;;11.85;8.40;;;;;;;;;;5014105;28;20375;-82
2021/04/15 11:03:15;;;;;;;2.53;0.80;;;;;;;;;;5014345;28;20367;-87
2021/04/15 11:05:43;;;;;;;2.08;1.73;;;;;;;;;;5017287;28;20367;-85
2021/04/15 11:08:16;;;;;;;2.42;0.80;;;;;;;;;;5015742;28;20402;-85
2021/04/15 11:10:42;;;;;;;1.40;0.77;;;;;;;;;;5013561;28;20886;-83
2021/04/15 11:13:14;;;;;;;15.13;1.93;;;;;;;;;;5013085;28;20383;-85
2021/04/15 11:15:46;;;;;;;2.22;0.90;;;;;;;;;;5012790;28;20459;-83
2021/04/15 11:18:15;;;;;;;3.23;1.10;;;;;;;;;;5013862;28;20363;-86
2021/04/15 11:20:42;;;;;;;1.33;0.80;;;;;;;;;;5013895;28;20445;-80
2021/04/15 11:23:15;;;;;;;1.30;0.75;;;;;;;;;;5012406;28;20450;-81
2021/04/15 11:25:43;;;;;;;1.60;0.80;;;;;;;;;;5012670;28;20425;-82
2021/04/15 11:28:12;;;;;;;25.30;2.17;;;;;;;;;;5013830;28;20371;-80
2021/04/15 11:30:43;;;;;;;3.08;1.00;;;;;;;;;;5013343;28;20391;-87
2021/04/15 11:33:11;;;;;;;1.52;0.80;;;;;;;;;;5013657;28;20462;-83
2021/04/15 11:35:37;;;;;;;2.63;0.70;;;;;;;;;;5013547;28;20956;-82
2021/04/15 11:38:18;;;;;;;1.23;0.77;;;;;;;;;;5014702;28;20395;-80
2021/04/15 11:40:44;;;;;;;2.85;1.00;;;;;;;;;;5012744;28;20474;-82
2021/04/15 11:43:24;;;;;;;1.52;0.63;;;;;;;;;;5015099;28;20399;-86
2021/04/15 11:45:51;;;;;;;0.90;0.70;;;;;;;;;;5015053;28;20378;-85
2021/04/15 11:48:20;;;;;;;2.30;0.60;;;;;;;;;;5013801;28;20861;-86
2021/04/15 11:50:47;;;;;;;1.63;0.73;;;;;;;;;;5029017;28;20382;-85
2021/04/15 11:53:46;;;;;;;1.58;0.80;;;;;;;;;;5042958;28;20386;-89
2021/04/15 11:56:24;;;;;;;2.30;1.00;;;;;;;;;;5017612;28;20869;-86
2021/04/15 11:58:50;;;;;;;22.50;2.20;;;;;;;;;;5035952;28;20422;-88
2021/04/15 12:01:31;;;;;;;1.52;0.95;;;;;;;;;;5035971;28;20377;-86
2021/04/15 12:04:02;;;;;;;0.85;0.80;;;;;;;;;;5035311;28;20459;-82
2021/04/15 12:06:31;;;;;;;1.25;0.90;;;;;;;;;;5037998;28;20369;-85
2021/04/15 12:08:57;;;;;;;3.05;0.80;;;;;;;;;;5035768;28;20844;-87
2021/04/15 12:11:35;;;;;;;2.08;0.80;;;;;;;;;;5035802;28;20527;-89
2021/04/15 12:14:10;;;;;;;4.15;1.00;;;;;;;;;;5035343;28;20757;-85
2021/04/15 12:16:56;;;;;;;2.40;0.90;;;;;;;;;;5034326;28;20391;-88
2021/04/15 12:19:25;;;;;;;1.67;0.90;;;;;;;;;;5032054;28;20365;-85
2021/04/15 12:21:59;;;;;;;3.63;1.00;;;;;;;;;;5033225;28;20381;-85
2021/04/15 12:24:38;;;;;;;1.55;0.90;;;;;;;;;;5033494;28;20365;-86
2021/04/15 12:27:06;;;;;;;1.30;0.80;;;;;;;;;;5031651;28;20891;-87
2021/04/15 12:29:34;;;;;;;1.77;1.03;;;;;;;;;;5034783;28;20872;-87
2021/04/15 12:32:11;;;;;;;2.38;1.00;;;;;;;;;;5034604;28;20377;-88
2021/04/15 12:34:55;;;;;;;1.75;0.85;;;;;;;;;;5033420;28;20863;-86
2021/04/15 12:37:22;;;;;;;4.30;0.90;;;;;;;;;;5032287;28;20400;-87
2021/04/15 12:40:01;;;;;;;13.77;1.60;;;;;;;;;;5034551;28;20404;-87
2021/04/15 12:42:27;;;;;;;3.15;1.10;;;;;;;;;;5032852;28;20384;-85
2021/04/15 12:44:58;;;;;;;14.70;1.98;;;;;;;;;;5034706;28;20430;-86
2021/04/15 12:47:25;;;;;;;1.60;0.90;;;;;;;;;;5034104;28;20405;-84
2021/04/15 12:49:52;;;;;;;2.77;1.30;;;;;;;;;;5033285;28;20890;-86
2021/04/15 12:52:28;;;;;;;2.40;1.00;;;;;;;;;;5032996;28;20381;-90
2021/04/15 12:54:59;;;;;;;3.08;1.20;;;;;;;;;;5035598;28;20816;-90
2021/04/15 12:57:26;;;;;;;2.60;1.10;;;;;;;;;;5033219;28;20408;-85
2021/04/15 12:59:53;;;;;;;2.23;1.10;;;;;;;;;;5034075;28;20365;-87
2021/04/15 13:02:21;;;;;;;1.88;1.35;;;;;;;;;;5033408;28;20476;-89
2021/04/15 13:04:57;;;;;;;1.63;1.07;;;;;;;;;;5035089;28;20391;-85
2021/04/15 13:07:30;;;;;;;1.38;0.90;;;;;;;;;;5032582;28;20397;-88
2021/04/15 13:10:14;;;;;;;1.83;1.20;;;;;;;;;;5035144;28;20389;-83
2021/04/15 13:12:50;;;;;;;1.40;1.20;;;;;;;;;;5033275;28;20392;-88
2021/04/15 13:15:25;;;;;;;1.50;1.00;;;;;;;;;;5032665;28;20432;-85
2021/04/15 13:17:53;;;;;;;1.55;1.10;;;;;;;;;;5032388;28;20414;-84
2021/04/15 13:20:22;;;;;;;2.03;1.35;;;;;;;;;;5034773;28;20370;-87
2021/04/15 13:22:51;;;;;;;1.45;1.00;;;;;;;;;;5035512;28;20799;-86
2021/04/15 13:25:19;;;;;;;2.40;1.30;;;;;;;;;;5039712;28;20365;-82
2021/04/15 13:27:54;;;;;;;2.50;1.00;;;;;;;;;;5040146;28;20393;-84
2021/04/15 13:30:20;;;;;;;2.40;1.08;;;;;;;;;;5033780;28;20366;-83
2021/04/15 13:33:15;;;;;;;1.55;0.90;;;;;;;;;;5035327;28;20362;-85
2021/04/15 13:35:50;;;;;;;1.55;0.85;;;;;;;;;;5038550;28;20385;-87
2021/04/15 13:38:28;;;;;;;5.35;1.20;;;;;;;;;;5036532;28;20381;-86
2021/04/15 13:40:54;;;;;;;2.03;0.90;;;;;;;;;;5035449;28;20385;-84
2021/04/15 13:43:33;;;;;;;3.05;1.23;;;;;;;;;;5038159;28;20369;-86
2021/04/15 13:46:18;;;;;;;2.35;1.13;;;;;;;;;;5036064;28;20370;-84
2021/04/15 13:48:46;;;;;;;1.48;1.00;;;;;;;;;;5036941;28;20468;-81
2021/04/15 13:51:14;;;;;;;3.08;1.00;;;;;;;;;;5036605;28;21177;-82
2021/04/15 13:53:45;;;;;;;2.10;0.90;;;;;;;;;;5041070;28;20369;-83
2021/04/15 13:56:27;;;;;;;1.48;0.80;;;;;;;;;;5042936;28;20421;-88
2021/04/15 13:58:53;;;;;;;2.10;0.90;;;;;;;;;;5036147;28;20444;-88
2021/04/15 14:01:56;;;;;;;1.67;0.80;;;;;;;;;;5041938;28;20740;-84
2021/04/15 14:04:45;;;;;;;1.08;0.80;;;;;;;;;;4983506;28;20389;-90
2021/04/15 14:07:26;;;;;;;1.60;0.82;;;;;;;;;;5034741;28;20442;-87
2021/04/15 14:10:11;;;;;;;1.38;0.70;;;;;;;;;;5020193;28;20396;-89
2021/04/15 14:12:48;;;;;;;1.55;0.85;;;;;;;;;;5033630;28;20508;-87
2021/04/15 14:15:33;;;;;;;2.35;0.70;;;;;;;;;;5033447;28;20736;-87
2021/04/15 14:18:08;;;;;;;2.20;0.82;;;;;;;;;;5037556;28;20381;-86
2021/04/15 14:20:37;;;;;;;2.20;0.80;;;;;;;;;;5036764;28;20393;-88
2021/04/15 14:23:16;;;;;;;1.10;0.80;;;;;;;;;;5037707;28;20991;-88
2021/04/15 14:25:42;;;;;;;1.80;0.90;;;;;;;;;;5030872;28;20389;-91
2021/04/15 14:28:11;;;;;;;1.98;0.90;;;;;;;;;;5034955;28;20381;-89
2021/04/15 14:30:38;;;;;;;2.87;0.87;;;;;;;;;;5032316;28;20381;-90
2021/04/15 14:33:25;;;;;;;1.15;0.95;;;;;;;;;;5042693;28;20444;-88
2021/04/15 14:35:54;;;;;;;1.15;0.70;;;;;;;;;;5034538;28;20424;-93
2021/04/15 14:38:34;;;;;;;1.35;0.80;;;;;;;;;;5031115;28;20444;-86
2021/04/15 14:41:03;;;;;;;1.40;0.80;;;;;;;;;;5032121;28;20419;-87
2021/04/15 14:43:33;;;;;;;1.25;0.82;;;;;;;;;;5036059;28;20370;-91
2021/04/15 14:46:09;;;;;;;1.65;0.90;;;;;;;;;;5034569;28;20373;-92
2021/04/15 14:48:35;;;;;;;0.90;0.60;;;;;;;;;;5037849;28;20440;-88
2021/04/15 14:51:30;;;;;;;1.30;0.88;;;;;;;;;;5018029;28;20371;-90
2021/04/15 14:53:56;;;;;;;2.55;0.98;;;;;;;;;;5014562;28;20383;-87
2021/04/15 14:56:27;;;;;;;2.15;0.80;;;;;;;;;;5017980;28;20429;-86
2021/04/15 14:59:06;;;;;;;2.35;0.80;;;;;;;;;;5025183;28;20468;-87
2021/04/15 15:01:35;;;;;;;0.85;0.80;;;;;;;;;;5039921;28;20365;-88
2021/04/15 15:04:11;;;;;;;1.33;0.90;;;;;;;;;;5031668;28;20414;-90
2021/04/15 15:06:40;;;;;;;1.27;0.80;;;;;;;;;;5017579;28;20367;-90
2021/04/15 15:09:07;;;;;;;1.40;0.90;;;;;;;;;;5032025;28;20399;-86
2021/04/15 15:11:34;;;;;;;1.85;0.95;;;;;;;;;;5028520;28;20458;-87
2021/04/15 15:14:00;;;;;;;1.07;0.70;;;;;;;;;;5033572;28;20942;-88
2021/04/15 15:16:28;;;;;;;1.10;0.77;;;;;;;;;;5043813;28;20398;-84
2021/04/15 15:18:55;;;;;;;2.10;0.80;;;;;;;;;;5046460;28;20365;-83